Time;durP1;ratioP1;P1;durP2;ratioP2;P2;SDS_P1;SDS_P2;PMS_P1;PMS_P2;Temp;Humidity;BMP_temperature;BMP_pressure;BME280_temperature;BME280_humidity;BME280_pressure;Samples;Min_cycle;Max_cycle;Signal;HPM_P1;HPM_P2
2021/10/28 00:12:13;;;;;;;;;;;;;;;;;;1038886;28;1230;-18
2021/10/28 00:13:01;;;;;;;;;;;;;;;;;;1038855;28;1179;-19
2021/10/28 00:13:34;;;;;;;;;;;;;;;;;;1039180;28;827;-19
2021/10/28 00:14:05;;;;;;;;;;;;;;;;;;1039261;28;1173;-18
2021/10/28 00:14:36;;;;;;;;;;;;;;;;;;1038918;28;1059;-18
2021/10/28 00:15:12;;;;;;;;;;;;;;;;;;1039205;28;1063;-19
2021/10/28 00:15:53;;;;;;;;;;;;;;;;;;1039357;28;957;-19
2021/10/28 00:16:29;;;;;;;;;;;;;;;;;;1039296;28;1108;-18
2021/10/28 00:17:01;;;;;;;;;;;;;;;;;;1038944;28;1073;-18
2021/10/28 00:18:16;;;;;;;;;;;;;;;;;;1042728;28;822;-18
2021/10/28 00:18:49;;;;;;;;;;;;;;;;;;1042434;28;986;-18
2021/10/28 00:19:20;;;;;;;;;;;;;;;;;;1038427;28;1096;-19
2021/10/28 00:19:50;;;;;;;;;;;;;;;;;;1038474;28;1408;-19
2021/10/28 00:20:20;;;;;;;;;;;;;;;;;;1038620;28;1168;-20
2021/10/28 00:20:54;;;;;;;;;;;;;;;;;;1038749;28;1539;-19
2021/10/28 00:21:24;;;;;;;;;;;;;;;;;;1039138;28;1064;-18
2021/10/28 00:21:55;;;;;;;;;;;;;;;;;;1039143;28;1059;-18
2021/10/28 00:22:26;;;;;;;;;;;;;;;;;;1039311;28;898;-19
2021/10/28 00:22:57;;;;;;;;;;;;;;;;;;1042133;28;1238;-18
2021/10/28 00:23:28;;;;;;;;;;;;;;;;;;1042589;28;1141;-20
2021/10/28 00:24:02;;;;;;;;;;;;;;;;;;1042374;28;1786;-18
2021/10/28 00:24:32;;;;;;;;;;;;;;;;;;1041833;28;1012;-17
2021/10/28 00:25:05;;;;;;;;;;;;;;;;;;1042480;28;942;-19
2021/10/28 00:25:38;;;;;;;;;;;;;;;;;;1042423;28;1217;-19
2021/10/28 00:26:10;;;;;;;;;;;;;;;;;;1042392;28;1284;-18
2021/10/28 00:26:42;;;;;;;;;;;;;;;;;;1038249;28;1415;-18
2021/10/28 00:27:12;;;;;;;;;;;;;;;;;;1038177;28;1918;-19
2021/10/28 00:27:43;;;;;;;;;;;;;;;;;;1037930;28;1554;-18
2021/10/28 00:28:13;;;;;;;;;;;;;;;;;;1038232;28;1293;-18
2021/10/28 00:28:44;;;;;;;;;;;;;;;;;;1038512;28;988;-19
2021/10/28 00:29:16;;;;;;;;;;;;;;;;;;1038249;28;1218;-18
2021/10/28 00:29:47;;;;;;;;;;;;;;;;;;1037542;28;1061;-19
2021/10/28 00:30:18;;;;;;;;;;;;;;;;;;1034961;28;921;-19
2021/10/28 00:30:49;;;;;;;;;;;;;;;;;;1034901;28;1042;-19
2021/10/28 00:31:19;;;;;;;;;;;;;;;;;;1037015;28;1098;-19
2021/10/28 00:31:49;;;;;;;;;;;;;;;;;;1038940;28;1078;-18
2021/10/28 00:32:20;;;;;;;;;;;;;;;;;;1038575;28;972;-19
2021/10/28 00:32:51;;;;;;;;;;;;;;;;;;1039229;28;962;-19
2021/10/28 00:33:22;;;;;;;;;;;;;;;;;;1038800;28;983;-19
2021/10/28 00:33:52;;;;;;;;;;;;;;;;;;1039085;28;1143;-20
2021/10/28 00:34:23;;;;;;;;;;;;;;;;;;1038872;28;1223;-20
2021/10/28 00:34:54;;;;;;;;;;;;;;;;;;1038436;28;1198;-19
2021/10/28 00:35:25;;;;;;;;;;;;;;;;;;1042492;28;1300;-19
2021/10/28 00:35:55;;;;;;;;;;;;;;;;;;1042296;28;1219;-19
2021/10/28 00:36:26;;;;;;;;;;;;;;;;;;1042378;28;1198;-18
2021/10/28 00:36:56;;;;;;;;;;;;;;;;;;1046614;28;945;-18
2021/10/28 00:37:28;;;;;;;;;;;;;;;;;;1038754;28;1184;-19
2021/10/28 00:37:58;;;;;;;;;;;;;;;;;;1039066;28;968;-17
2021/10/28 00:38:30;;;;;;;;;;;;;;;;;;1039107;28;814;-18
2021/10/28 00:39:01;;;;;;;;;;;;;;;;;;1042293;28;975;-19
2021/10/28 00:39:32;;;;;;;;;;;;;;;;;;1042232;28;1143;-19
2021/10/28 00:40:04;;;;;;;;;;;;;;;;;;1042600;28;842;-19
2021/10/28 00:40:34;;;;;;;;;;;;;;;;;;1042009;28;1436;-19
2021/10/28 00:41:06;;;;;;;;;;;;;;;;;;1038811;28;1399;-18
2021/10/28 00:41:38;;;;;;;;;;;;;;;;;;1042209;28;1241;-19
2021/10/28 00:42:09;;;;;;;;;;;;;;;;;;1042250;28;1375;-18
2021/10/28 00:42:39;;;;;;;;;;;;;;;;;;1042134;28;1367;-18
2021/10/28 00:43:10;;;;;;;;;;;;;;;;;;1042286;28;1223;-19
2021/10/28 00:43:47;;;;;;;;;;;;;;;;;;1038671;28;1202;-19
2021/10/28 00:44:19;;;;;;;;;;;;;;;;;;1038993;28;795;-19
2021/10/28 00:44:49;;;;;;;;;;;;;;;;;;1039127;28;933;-19
2021/10/28 00:45:22;;;;;;;;;;;;;;;;;;1038899;28;1030;-18
2021/10/28 00:45:53;;;;;;;;;;;;;;;;;;1038957;28;848;-19
2021/10/28 00:46:25;;;;;;;;;;;;;;;;;;1039053;28;998;-18
2021/10/28 00:46:55;;;;;;;;;;;;;;;;;;1039019;28;969;-19
2021/10/28 00:47:25;;;;;;;;;;;;;;;;;;1038934;28;1910;-19
2021/10/28 00:47:56;;;;;;;;;;;;;;;;;;1038961;28;990;-19
2021/10/28 00:48:26;;;;;;;;;;;;;;;;;;1038567;28;1151;-17
2021/10/28 00:48:57;;;;;;;;;;;;;;;;;;1039210;28;802;-18
2021/10/28 00:49:29;;;;;;;;;;;;;;;;;;1038850;28;1486;-19
2021/10/28 00:49:59;;;;;;;;;;;;;;;;;;1042278;28;1063;-20
2021/10/28 00:50:30;;;;;;;;;;;;;;;;;;1042366;28;925;-19
2021/10/28 00:51:02;;;;;;;;;;;;;;;;;;1042612;28;1083;-19
2021/10/28 00:51:32;;;;;;;;;;;;;;;;;;1041909;28;984;-18
2021/10/28 00:52:03;;;;;;;;;;;;;;;;;;1039277;28;1025;-20
2021/10/28 00:52:34;;;;;;;;;;;;;;;;;;1038813;28;973;-19
2021/10/28 00:53:05;;;;;;;;;;;;;;;;;;1039130;28;826;-18
2021/10/28 00:53:35;;;;;;;;;;;;;;;;;;1038843;28;988;-19
2021/10/28 00:54:06;;;;;;;;;;;;;;;;;;1038985;28;1306;-18
2021/10/28 00:54:37;;;;;;;;;;;;;;;;;;1038600;28;1247;-20
2021/10/28 00:55:08;;;;;;;;;;;;;;;;;;1039087;28;1190;-19
2021/10/28 00:55:39;;;;;;;;;;;;;;;;;;1041974;28;1077;-19
2021/10/28 00:56:09;;;;;;;;;;;;;;;;;;1042508;28;893;-18
2021/10/28 00:56:42;;;;;;;;;;;;;;;;;;1042297;28;1000;-19
2021/10/28 00:57:12;;;;;;;;;;;;;;;;;;1041853;28;935;-18
2021/10/28 00:57:44;;;;;;;;;;;;;;;;;;1038777;28;819;-18
2021/10/28 00:58:20;;;;;;;;;;;;;;;;;;1038976;28;936;-18
2021/10/28 00:58:50;;;;;;;;;;;;;;;;;;1038891;28;972;-18
2021/10/28 00:59:21;;;;;;;;;;;;;;;;;;1042403;28;1043;-18
2021/10/28 00:59:52;;;;;;;;;;;;;;;;;;1042331;28;1233;-19
2021/10/28 01:00:22;;;;;;;;;;;;;;;;;;1042361;28;1145;-19
2021/10/28 01:00:53;;;;;;;;;;;;;;;;;;1042251;28;826;-19
2021/10/28 01:01:23;;;;;;;;;;;;;;;;;;1039154;28;1057;-19
2021/10/28 01:01:54;;;;;;;;;;;;;;;;;;1042155;28;953;-17
2021/10/28 01:02:24;;;;;;;;;;;;;;;;;;1042653;28;941;-18
2021/10/28 01:02:54;;;;;;;;;;;;;;;;;;1042075;28;989;-18
2021/10/28 01:03:26;;;;;;;;;;;;;;;;;;1038185;28;871;-19
2021/10/28 01:03:56;;;;;;;;;;;;;;;;;;1038307;28;984;-18
2021/10/28 01:04:27;;;;;;;;;;;;;;;;;;1038201;28;1015;-19
2021/10/28 01:04:58;;;;;;;;;;;;;;;;;;1038212;28;814;-19
2021/10/28 01:05:29;;;;;;;;;;;;;;;;;;1039001;28;944;-19
2021/10/28 01:06:00;;;;;;;;;;;;;;;;;;1038900;28;1079;-19
2021/10/28 01:06:32;;;;;;;;;;;;;;;;;;1038968;28;887;-19
2021/10/28 01:07:02;;;;;;;;;;;;;;;;;;1039101;28;940;-18
2021/10/28 01:07:33;;;;;;;;;;;;;;;;;;1038571;28;1910;-19
2021/10/28 01:08:04;;;;;;;;;;;;;;;;;;1039102;28;961;-19
2021/10/28 01:08:37;;;;;;;;;;;;;;;;;;1038822;28;1110;-19
2021/10/28 01:09:08;;;;;;;;;;;;;;;;;;1038494;28;1390;-18
2021/10/28 01:09:39;;;;;;;;;;;;;;;;;;1038838;28;1101;-19
2021/10/28 01:10:09;;;;;;;;;;;;;;;;;;1038994;28;1070;-18
2021/10/28 01:10:39;;;;;;;;;;;;;;;;;;1038759;28;799;-20
2021/10/28 01:11:10;;;;;;;;;;;;;;;;;;1039052;28;1155;-18
2021/10/28 01:11:40;;;;;;;;;;;;;;;;;;1038641;28;944;-19
2021/10/28 01:12:11;;;;;;;;;;;;;;;;;;1038307;28;925;-20
2021/10/28 01:12:42;;;;;;;;;;;;;;;;;;1038234;28;942;-19
2021/10/28 01:13:12;;;;;;;;;;;;;;;;;;1038041;28;942;-19
2021/10/28 01:13:43;;;;;;;;;;;;;;;;;;1038324;28;887;-18
2021/10/28 01:14:14;;;;;;;;;;;;;;;;;;1042398;28;992;-20
2021/10/28 01:14:45;;;;;;;;;;;;;;;;;;1042127;28;981;-19
2021/10/28 01:15:16;;;;;;;;;;;;;;;;;;1042345;28;933;-20
2021/10/28 01:15:50;;;;;;;;;;;;;;;;;;1038898;28;1103;-19
2021/10/28 01:16:20;;;;;;;;;;;;;;;;;;1038856;28;1161;-20
2021/10/28 01:16:57;;;;;;;;;;;;;;;;;;1039048;28;906;-19
2021/10/28 01:17:31;;;;;;;;;;;;;;;;;;1038849;28;889;-19
2021/10/28 01:18:06;;;;;;;;;;;;;;;;;;1038744;28;988;-19
2021/10/28 01:18:38;;;;;;;;;;;;;;;;;;1038821;28;1005;-19
2021/10/28 01:19:09;;;;;;;;;;;;;;;;;;1039117;28;997;-20
2021/10/28 01:19:40;;;;;;;;;;;;;;;;;;1038696;28;951;-19
2021/10/28 01:20:11;;;;;;;;;;;;;;;;;;1039094;28;890;-20
2021/10/28 01:20:42;;;;;;;;;;;;;;;;;;1038812;28;922;-19
2021/10/28 01:21:13;;;;;;;;;;;;;;;;;;1038900;28;1398;-19
2021/10/28 01:21:43;;;;;;;;;;;;;;;;;;1038884;28;811;-19
2021/10/28 01:22:14;;;;;;;;;;;;;;;;;;1038781;28;1008;-19
2021/10/28 01:22:44;;;;;;;;;;;;;;;;;;1038812;28;1129;-19
2021/10/28 01:23:15;;;;;;;;;;;;;;;;;;1039077;28;1004;-19
2021/10/28 01:23:46;;;;;;;;;;;;;;;;;;1038740;28;1166;-19
2021/10/28 01:24:16;;;;;;;;;;;;;;;;;;1038660;28;1350;-19
2021/10/28 01:24:47;;;;;;;;;;;;;;;;;;1038984;28;831;-19
2021/10/28 01:25:17;;;;;;;;;;;;;;;;;;1038917;28;965;-19
2021/10/28 01:25:54;;;;;;;;;;;;;;;;;;1038769;28;1225;-20
2021/10/28 01:26:24;;;;;;;;;;;;;;;;;;1039070;28;811;-19
2021/10/28 01:27:05;;;;;;;;;;;;;;;;;;1038896;28;964;-19
2021/10/28 01:27:35;;;;;;;;;;;;;;;;;;1038500;28;1910;-20
2021/10/28 01:28:06;;;;;;;;;;;;;;;;;;1039073;28;835;-19
2021/10/28 01:28:38;;;;;;;;;;;;;;;;;;1038745;28;1260;-19
2021/10/28 01:29:08;;;;;;;;;;;;;;;;;;1038909;28;1076;-19
2021/10/28 01:29:41;;;;;;;;;;;;;;;;;;1038646;28;1156;-19
2021/10/28 01:30:11;;;;;;;;;;;;;;;;;;1038784;28;914;-19
2021/10/28 01:30:46;;;;;;;;;;;;;;;;;;1038809;28;901;-19
2021/10/28 01:31:18;;;;;;;;;;;;;;;;;;1037711;28;1033;-19
2021/10/28 01:31:49;;;;;;;;;;;;;;;;;;1034888;28;886;-19
2021/10/28 01:32:19;;;;;;;;;;;;;;;;;;1034704;28;954;-19
2021/10/28 01:32:50;;;;;;;;;;;;;;;;;;1034796;28;934;-18
2021/10/28 01:33:21;;;;;;;;;;;;;;;;;;1034833;28;972;-20
2021/10/28 01:33:52;;;;;;;;;;;;;;;;;;1037879;28;1044;-19
2021/10/28 01:34:23;;;;;;;;;;;;;;;;;;1042265;28;1044;-20
2021/10/28 01:34:53;;;;;;;;;;;;;;;;;;1042227;28;932;-19
2021/10/28 01:35:24;;;;;;;;;;;;;;;;;;1042063;28;927;-19
2021/10/28 01:35:55;;;;;;;;;;;;;;;;;;1038231;28;1004;-20
2021/10/28 01:36:26;;;;;;;;;;;;;;;;;;1034704;28;1023;-19
2021/10/28 01:36:57;;;;;;;;;;;;;;;;;;1034467;28;1446;-20
2021/10/28 01:37:27;;;;;;;;;;;;;;;;;;1034646;28;1145;-20
2021/10/28 01:37:58;;;;;;;;;;;;;;;;;;1034642;28;1023;-19
2021/10/28 01:38:28;;;;;;;;;;;;;;;;;;1038273;28;837;-19
2021/10/28 01:38:59;;;;;;;;;;;;;;;;;;1038756;28;965;-20
2021/10/28 01:39:29;;;;;;;;;;;;;;;;;;1038153;28;938;-19
2021/10/28 01:39:59;;;;;;;;;;;;;;;;;;1038694;28;945;-19
2021/10/28 01:40:30;;;;;;;;;;;;;;;;;;1034752;28;971;-19
2021/10/28 01:41:02;;;;;;;;;;;;;;;;;;1034626;28;1040;-18
2021/10/28 01:41:33;;;;;;;;;;;;;;;;;;1034803;28;957;-19
2021/10/28 01:42:05;;;;;;;;;;;;;;;;;;1038230;28;1191;-19
2021/10/28 01:42:36;;;;;;;;;;;;;;;;;;1033622;28;1071;-18
2021/10/28 01:43:07;;;;;;;;;;;;;;;;;;1034313;28;1122;-19
2021/10/28 01:43:38;;;;;;;;;;;;;;;;;;1033190;28;1083;-19
2021/10/28 01:44:08;;;;;;;;;;;;;;;;;;1030157;28;1239;-19
2021/10/28 01:44:39;;;;;;;;;;;;;;;;;;1029728;28;1426;-19
2021/10/28 01:45:09;;;;;;;;;;;;;;;;;;1029885;28;1005;-18
2021/10/28 01:45:39;;;;;;;;;;;;;;;;;;1034043;28;1078;-19
2021/10/28 01:46:10;;;;;;;;;;;;;;;;;;1033791;28;1421;-19
2021/10/28 01:46:41;;;;;;;;;;;;;;;;;;1033648;28;1035;-19
2021/10/28 01:47:17;;;;;;;;;;;;;;;;;;1034456;28;969;-20
2021/10/28 01:47:48;;;;;;;;;;;;;;;;;;1034030;28;1085;-19
2021/10/28 01:48:19;;;;;;;;;;;;;;;;;;1034634;28;944;-19
2021/10/28 01:48:50;;;;;;;;;;;;;;;;;;1034709;28;969;-19
2021/10/28 01:49:40;;;;;;;;;;;;;;;;;;1034741;28;926;-19
2021/10/28 01:50:11;;;;;;;;;;;;;;;;;;1034110;28;1440;-18
2021/10/28 01:50:42;;;;;;;;;;;;;;;;;;1034488;28;1060;-18
2021/10/28 01:51:12;;;;;;;;;;;;;;;;;;1034750;28;1073;-19
2021/10/28 01:51:43;;;;;;;;;;;;;;;;;;1034661;28;1045;-19
2021/10/28 01:52:15;;;;;;;;;;;;;;;;;;1034762;28;866;-19
2021/10/28 01:52:45;;;;;;;;;;;;;;;;;;1034814;28;874;-19
2021/10/28 01:53:16;;;;;;;;;;;;;;;;;;1034816;28;1073;-18
2021/10/28 01:53:47;;;;;;;;;;;;;;;;;;1034540;28;862;-19
2021/10/28 01:54:17;;;;;;;;;;;;;;;;;;1034614;28;1729;-19
2021/10/28 01:54:48;;;;;;;;;;;;;;;;;;1034560;28;1074;-19
2021/10/28 01:55:19;;;;;;;;;;;;;;;;;;1037811;28;1339;-19
2021/10/28 01:55:50;;;;;;;;;;;;;;;;;;1037935;28;1195;-19
2021/10/28 01:56:21;;;;;;;;;;;;;;;;;;1038057;28;1031;-19
2021/10/28 01:56:51;;;;;;;;;;;;;;;;;;1033818;28;1196;-19
2021/10/28 01:57:23;;;;;;;;;;;;;;;;;;1034188;28;1009;-19
2021/10/28 01:57:53;;;;;;;;;;;;;;;;;;1033840;28;1055;-19
2021/10/28 01:58:24;;;;;;;;;;;;;;;;;;1034202;28;979;-19
2021/10/28 01:58:54;;;;;;;;;;;;;;;;;;1034303;28;1152;-19
2021/10/28 01:59:25;;;;;;;;;;;;;;;;;;1033973;28;1398;-19
2021/10/28 01:59:55;;;;;;;;;;;;;;;;;;1034377;28;981;-19
2021/10/28 02:00:26;;;;;;;;;;;;;;;;;;1034090;28;1127;-20
2021/10/28 02:00:57;;;;;;;;;;;;;;;;;;1041825;28;1442;-18
2021/10/28 02:01:28;;;;;;;;;;;;;;;;;;1034006;28;955;-19
2021/10/28 02:01:58;;;;;;;;;;;;;;;;;;1033944;28;1117;-19
2021/10/28 02:02:29;;;;;;;;;;;;;;;;;;1029830;28;967;-19
2021/10/28 02:03:00;;;;;;;;;;;;;;;;;;1034038;28;1081;-19
2021/10/28 02:03:30;;;;;;;;;;;;;;;;;;1037914;28;1009;-19
2021/10/28 02:04:01;;;;;;;;;;;;;;;;;;1038140;28;1156;-20
2021/10/28 02:04:31;;;;;;;;;;;;;;;;;;1042311;28;1136;-19
2021/10/28 02:05:03;;;;;;;;;;;;;;;;;;1034685;28;983;-19
2021/10/28 02:05:34;;;;;;;;;;;;;;;;;;1037991;28;957;-20
2021/10/28 02:06:04;;;;;;;;;;;;;;;;;;1034023;28;1348;-19
2021/10/28 02:06:34;;;;;;;;;;;;;;;;;;1033791;28;1197;-20
2021/10/28 02:07:06;;;;;;;;;;;;;;;;;;1034319;28;1100;-19
2021/10/28 02:07:37;;;;;;;;;;;;;;;;;;1033584;28;1984;-20
2021/10/28 02:08:07;;;;;;;;;;;;;;;;;;1034057;28;1076;-19
2021/10/28 02:08:38;;;;;;;;;;;;;;;;;;1034013;28;922;-19
2021/10/28 02:09:08;;;;;;;;;;;;;;;;;;1034187;28;965;-19
2021/10/28 02:09:39;;;;;;;;;;;;;;;;;;1034934;28;873;-19
2021/10/28 02:10:10;;;;;;;;;;;;;;;;;;1038923;28;1073;-20
2021/10/28 02:10:40;;;;;;;;;;;;;;;;;;1038769;28;1069;-19
2021/10/28 02:11:10;;;;;;;;;;;;;;;;;;1043171;28;1031;-19
2021/10/28 02:11:41;;;;;;;;;;;;;;;;;;1042770;28;1220;-20
2021/10/28 02:12:11;;;;;;;;;;;;;;;;;;1038828;28;993;-19
2021/10/28 02:12:45;;;;;;;;;;;;;;;;;;1038910;28;819;-19
2021/10/28 02:13:16;;;;;;;;;;;;;;;;;;1035675;28;1300;-19
2021/10/28 02:13:46;;;;;;;;;;;;;;;;;;1038533;28;1197;-20
2021/10/28 02:14:18;;;;;;;;;;;;;;;;;;1038887;28;957;-19
2021/10/28 02:14:48;;;;;;;;;;;;;;;;;;1038839;28;905;-19
2021/10/28 02:15:19;;;;;;;;;;;;;;;;;;1038687;28;909;-20
2021/10/28 02:15:49;;;;;;;;;;;;;;;;;;1035427;28;1112;-19
2021/10/28 02:16:19;;;;;;;;;;;;;;;;;;1035560;28;950;-19
2021/10/28 02:16:50;;;;;;;;;;;;;;;;;;1035377;28;995;-23
2021/10/28 02:17:20;;;;;;;;;;;;;;;;;;1035710;28;1251;-19
2021/10/28 02:17:51;;;;;;;;;;;;;;;;;;1035286;28;957;-19
2021/10/28 02:18:22;;;;;;;;;;;;;;;;;;1035554;28;1857;-20
2021/10/28 02:18:53;;;;;;;;;;;;;;;;;;1035392;28;977;-19
2021/10/28 02:19:23;;;;;;;;;;;;;;;;;;1035337;28;1033;-19
2021/10/28 02:19:53;;;;;;;;;;;;;;;;;;1035442;28;948;-19
2021/10/28 02:20:24;;;;;;;;;;;;;;;;;;1035672;28;997;-19
2021/10/28 02:20:54;;;;;;;;;;;;;;;;;;1035143;28;905;-19
2021/10/28 02:21:25;;;;;;;;;;;;;;;;;;1035839;28;806;-19
2021/10/28 02:21:55;;;;;;;;;;;;;;;;;;1035236;28;1143;-19
2021/10/28 02:22:25;;;;;;;;;;;;;;;;;;1035558;28;874;-19
2021/10/28 02:22:56;;;;;;;;;;;;;;;;;;1035505;28;967;-20
2021/10/28 02:23:26;;;;;;;;;;;;;;;;;;1035406;28;1102;-19
2021/10/28 02:23:57;;;;;;;;;;;;;;;;;;1038831;28;1042;-19
2021/10/28 02:24:29;;;;;;;;;;;;;;;;;;1038807;28;1117;-19
2021/10/28 02:25:00;;;;;;;;;;;;;;;;;;1038655;28;1337;-19
2021/10/28 02:25:30;;;;;;;;;;;;;;;;;;1038739;28;913;-19
2021/10/28 02:26:01;;;;;;;;;;;;;;;;;;1035400;28;1253;-18
2021/10/28 02:26:32;;;;;;;;;;;;;;;;;;1035265;28;1075;-19
2021/10/28 02:27:04;;;;;;;;;;;;;;;;;;1038971;28;1146;-19
2021/10/28 02:27:34;;;;;;;;;;;;;;;;;;1038643;28;1910;-19
2021/10/28 02:28:05;;;;;;;;;;;;;;;;;;1038787;28;1115;-18
2021/10/28 02:28:35;;;;;;;;;;;;;;;;;;1038712;28;956;-20
2021/10/28 02:29:05;;;;;;;;;;;;;;;;;;1035360;28;1068;-19
2021/10/28 02:29:36;;;;;;;;;;;;;;;;;;1035355;28;889;-19
2021/10/28 02:30:09;;;;;;;;;;;;;;;;;;1035139;28;1294;-19
2021/10/28 02:30:40;;;;;;;;;;;;;;;;;;1038650;28;1062;-19
2021/10/28 02:31:10;;;;;;;;;;;;;;;;;;1038729;28;1272;-19
2021/10/28 02:31:43;;;;;;;;;;;;;;;;;;1042944;28;1102;-19
2021/10/28 02:32:15;;;;;;;;;;;;;;;;;;1042457;28;949;-19
2021/10/28 02:32:46;;;;;;;;;;;;;;;;;;1042484;28;1352;-20
2021/10/28 02:33:16;;;;;;;;;;;;;;;;;;1042902;28;1185;-21
2021/10/28 02:33:46;;;;;;;;;;;;;;;;;;1042759;28;966;-20
2021/10/28 02:34:17;;;;;;;;;;;;;;;;;;1042846;28;1037;-19
2021/10/28 02:34:48;;;;;;;;;;;;;;;;;;1043024;28;991;-19
2021/10/28 02:35:19;;;;;;;;;;;;;;;;;;1042696;28;1039;-19
2021/10/28 02:35:49;;;;;;;;;;;;;;;;;;1043049;28;794;-19
2021/10/28 02:36:20;;;;;;;;;;;;;;;;;;1039577;28;937;-19
2021/10/28 02:36:50;;;;;;;;;;;;;;;;;;1039119;28;1259;-18
2021/10/28 02:37:22;;;;;;;;;;;;;;;;;;1042932;28;1284;-21
2021/10/28 02:37:52;;;;;;;;;;;;;;;;;;1042669;28;1198;-19
2021/10/28 02:38:22;;;;;;;;;;;;;;;;;;1043075;28;1095;-19
2021/10/28 02:38:53;;;;;;;;;;;;;;;;;;1042920;28;908;-18
2021/10/28 02:39:23;;;;;;;;;;;;;;;;;;1039273;28;981;-19
2021/10/28 02:39:54;;;;;;;;;;;;;;;;;;1042780;28;1023;-19
2021/10/28 02:40:25;;;;;;;;;;;;;;;;;;1042943;28;1123;-19
2021/10/28 02:40:55;;;;;;;;;;;;;;;;;;1042578;28;1188;-19
2021/10/28 02:41:26;;;;;;;;;;;;;;;;;;1043109;28;910;-19
2021/10/28 02:41:56;;;;;;;;;;;;;;;;;;1042523;28;1253;-19
2021/10/28 02:42:26;;;;;;;;;;;;;;;;;;1039272;28;1342;-19
2021/10/28 02:42:57;;;;;;;;;;;;;;;;;;1039509;28;1062;-18
2021/10/28 02:43:27;;;;;;;;;;;;;;;;;;1039059;28;1217;-19
2021/10/28 02:43:58;;;;;;;;;;;;;;;;;;1039423;28;1174;-19
2021/10/28 02:44:28;;;;;;;;;;;;;;;;;;1039415;28;1091;-19
2021/10/28 02:44:59;;;;;;;;;;;;;;;;;;1039375;28;879;-19
2021/10/28 02:45:29;;;;;;;;;;;;;;;;;;1042836;28;1064;-19
2021/10/28 02:46:00;;;;;;;;;;;;;;;;;;1042815;28;1040;-19
2021/10/28 02:46:30;;;;;;;;;;;;;;;;;;1042782;28;1090;-19
2021/10/28 02:47:00;;;;;;;;;;;;;;;;;;1043004;28;928;-20
2021/10/28 02:47:31;;;;;;;;;;;;;;;;;;1038851;28;1983;-19
2021/10/28 02:48:02;;;;;;;;;;;;;;;;;;1038720;28;1079;-19
2021/10/28 02:48:33;;;;;;;;;;;;;;;;;;1038704;28;1067;-19
2021/10/28 02:49:04;;;;;;;;;;;;;;;;;;1039072;28;917;-19
2021/10/28 02:49:36;;;;;;;;;;;;;;;;;;1042309;28;897;-18
2021/10/28 02:50:06;;;;;;;;;;;;;;;;;;1039643;28;1028;-19
2021/10/28 02:50:36;;;;;;;;;;;;;;;;;;1039397;28;1158;-19
2021/10/28 02:51:07;;;;;;;;;;;;;;;;;;1039487;28;968;-19
2021/10/28 02:51:38;;;;;;;;;;;;;;;;;;1039410;28;1705;-19
2021/10/28 02:52:09;;;;;;;;;;;;;;;;;;1039456;28;936;-19
2021/10/28 02:52:40;;;;;;;;;;;;;;;;;;1039314;28;897;-19
2021/10/28 02:53:11;;;;;;;;;;;;;;;;;;1039564;28;949;-20
2021/10/28 02:53:42;;;;;;;;;;;;;;;;;;1039322;28;1029;-20
2021/10/28 02:54:13;;;;;;;;;;;;;;;;;;1039459;28;953;-19
2021/10/28 02:54:43;;;;;;;;;;;;;;;;;;1039469;28;1152;-19
2021/10/28 02:55:13;;;;;;;;;;;;;;;;;;1039251;28;922;-20
2021/10/28 02:55:44;;;;;;;;;;;;;;;;;;1039535;28;976;-19
2021/10/28 02:56:14;;;;;;;;;;;;;;;;;;1039331;28;949;-19
2021/10/28 02:56:45;;;;;;;;;;;;;;;;;;1039334;28;925;-19
2021/10/28 02:57:15;;;;;;;;;;;;;;;;;;1039526;28;953;-19
2021/10/28 02:57:46;;;;;;;;;;;;;;;;;;1039204;28;897;-19
2021/10/28 02:58:17;;;;;;;;;;;;;;;;;;1039428;28;1640;-19
2021/10/28 02:58:47;;;;;;;;;;;;;;;;;;1039435;28;925;-19
2021/10/28 02:59:18;;;;;;;;;;;;;;;;;;1039163;28;1129;-19
2021/10/28 02:59:48;;;;;;;;;;;;;;;;;;1042825;28;1234;-19
2021/10/28 03:00:19;;;;;;;;;;;;;;;;;;1042784;28;1580;-19
2021/10/28 03:00:49;;;;;;;;;;;;;;;;;;1042610;28;950;-19
2021/10/28 03:01:20;;;;;;;;;;;;;;;;;;1043062;28;934;-20
2021/10/28 03:01:51;;;;;;;;;;;;;;;;;;1038967;28;1351;-19
2021/10/28 03:02:22;;;;;;;;;;;;;;;;;;1039392;28;1217;-19
2021/10/28 03:02:52;;;;;;;;;;;;;;;;;;1039448;28;1259;-20
2021/10/28 03:03:23;;;;;;;;;;;;;;;;;;1039383;28;969;-19
2021/10/28 03:03:53;;;;;;;;;;;;;;;;;;1039380;28;968;-19
2021/10/28 03:04:24;;;;;;;;;;;;;;;;;;1042498;28;1640;-19
2021/10/28 03:04:54;;;;;;;;;;;;;;;;;;1042375;28;1162;-20
2021/10/28 03:05:25;;;;;;;;;;;;;;;;;;1043016;28;1004;-19
2021/10/28 03:05:55;;;;;;;;;;;;;;;;;;1042545;28;1177;-18
2021/10/28 03:06:25;;;;;;;;;;;;;;;;;;1039205;28;948;-19
2021/10/28 03:06:57;;;;;;;;;;;;;;;;;;1039513;28;988;-20
2021/10/28 03:07:27;;;;;;;;;;;;;;;;;;1042556;28;1979;-20
2021/10/28 03:07:57;;;;;;;;;;;;;;;;;;1042779;28;1177;-19
2021/10/28 03:08:29;;;;;;;;;;;;;;;;;;1042859;28;815;-20
2021/10/28 03:08:59;;;;;;;;;;;;;;;;;;1042529;28;1368;-19
2021/10/28 03:09:30;;;;;;;;;;;;;;;;;;1039330;28;889;-19
2021/10/28 03:10:02;;;;;;;;;;;;;;;;;;1039232;28;870;-19
2021/10/28 03:10:32;;;;;;;;;;;;;;;;;;1039230;28;1009;-18
2021/10/28 03:11:06;;;;;;;;;;;;;;;;;;1039013;28;1549;-19
2021/10/28 03:11:38;;;;;;;;;;;;;;;;;;1039376;28;1145;-19
2021/10/28 03:12:08;;;;;;;;;;;;;;;;;;1039285;28;984;-19
2021/10/28 03:12:41;;;;;;;;;;;;;;;;;;1039206;28;965;-19
2021/10/28 03:13:15;;;;;;;;;;;;;;;;;;1039442;28;1024;-19
2021/10/28 03:13:48;;;;;;;;;;;;;;;;;;1039281;28;1058;-19
2021/10/28 03:14:22;;;;;;;;;;;;;;;;;;1039369;28;800;-19
2021/10/28 03:14:56;;;;;;;;;;;;;;;;;;1039403;28;759;-19
2021/10/28 03:15:30;;;;;;;;;;;;;;;;;;1039316;28;890;-24
2021/10/28 03:16:11;;;;;;;;;;;;;;;;;;1039326;28;910;-19
2021/10/28 03:17:31;;;;;;;;;;;;;;;;;;1042661;28;1371;-19
2021/10/28 03:19:17;;;;;;;;;;;;;;;;;;1042700;28;1034;-19
2021/10/28 03:19:28;;;;;;;;;;;;;;;;;;1039521;28;1254;-19
2021/10/28 03:25:33;;;;;;;;;;;;;;;;;;1039203;28;1101;-19
2021/10/28 03:25:43;;;;;;;;;;;;;;;;;;1039035;28;1260;-19
2021/10/28 03:26:13;;;;;;;;;;;;;;;;;;1039297;28;862;-19
2021/10/28 03:26:43;;;;;;;;;;;;;;;;;;1039331;28;1017;-19
2021/10/28 03:27:14;;;;;;;;;;;;;;;;;;1039027;28;977;-19
2021/10/28 03:27:44;;;;;;;;;;;;;;;;;;1039169;28;1911;-20
2021/10/28 03:28:18;;;;;;;;;;;;;;;;;;1039044;28;977;-19
2021/10/28 03:28:49;;;;;;;;;;;;;;;;;;1039057;28;1039;-19
2021/10/28 03:29:19;;;;;;;;;;;;;;;;;;1038830;28;1529;-18
2021/10/28 03:29:49;;;;;;;;;;;;;;;;;;1038475;28;1007;-19
2021/10/28 03:30:20;;;;;;;;;;;;;;;;;;1038507;28;1251;-19
2021/10/28 03:30:50;;;;;;;;;;;;;;;;;;1038776;28;1197;-19
2021/10/28 03:31:20;;;;;;;;;;;;;;;;;;1037632;28;1064;-19
2021/10/28 03:31:51;;;;;;;;;;;;;;;;;;1034999;28;985;-19
2021/10/28 03:32:22;;;;;;;;;;;;;;;;;;1035171;28;1002;-18
2021/10/28 03:32:52;;;;;;;;;;;;;;;;;;1035080;28;933;-18
2021/10/28 03:33:24;;;;;;;;;;;;;;;;;;1035212;28;890;-19
2021/10/28 03:33:55;;;;;;;;;;;;;;;;;;1035049;28;934;-19
2021/10/28 03:34:26;;;;;;;;;;;;;;;;;;1035188;28;1429;-18
2021/10/28 03:34:56;;;;;;;;;;;;;;;;;;1034935;28;1213;-19
2021/10/28 03:35:27;;;;;;;;;;;;;;;;;;1038503;28;1047;-19
2021/10/28 03:35:57;;;;;;;;;;;;;;;;;;1038126;28;1216;-19
2021/10/28 03:36:43;;;;;;;;;;;;;;;;;;1038439;28;1034;-19
2021/10/28 03:37:18;;;;;;;;;;;;;;;;;;1034451;28;1407;-19
2021/10/28 03:37:55;;;;;;;;;;;;;;;;;;1034443;28;1117;-19
2021/10/28 03:38:32;;;;;;;;;;;;;;;;;;1034467;28;1100;-19
2021/10/28 03:44:38;;;;;;;;;;;;;;;;;;1034878;28;1490;-19
2021/10/28 03:46:53;;;;;;;;;;;;;;;;;;1034784;28;1370;-20
2021/10/28 03:52:01;;;;;;;;;;;;;;;;;;1038330;28;1238;-18
2021/10/28 03:55:10;;;;;;;;;;;;;;;;;;1034078;28;990;-20
2021/10/28 04:03:34;;;;;;;;;;;;;;;;;;1037970;28;1221;-19
2021/10/28 04:18:31;;;;;;;;;;;;;;;;;;1038331;28;983;-19
2021/10/28 04:19:25;;;;;;;;;;;;;;;;;;1037769;28;965;-19
2021/10/28 04:28:55;;;;;;;;;;;;;;;;;;1037787;28;1452;-19
2021/10/28 04:29:26;;;;;;;;;;;;;;;;;;1037981;28;1766;-20
2021/10/28 04:29:56;;;;;;;;;;;;;;;;;;1039076;28;1193;-19
2021/10/28 04:30:26;;;;;;;;;;;;;;;;;;1038466;28;1470;-19
2021/10/28 04:30:57;;;;;;;;;;;;;;;;;;1038905;28;1259;-18
2021/10/28 04:31:29;;;;;;;;;;;;;;;;;;1039129;28;1196;-20
2021/10/28 04:31:59;;;;;;;;;;;;;;;;;;1042122;28;1189;-19
2021/10/28 04:32:31;;;;;;;;;;;;;;;;;;1041873;28;1169;-19
2021/10/28 04:33:01;;;;;;;;;;;;;;;;;;1042133;28;1426;-20
2021/10/28 04:33:33;;;;;;;;;;;;;;;;;;1042349;28;1065;-19
2021/10/28 04:34:23;;;;;;;;;;;;;;;;;;1034103;28;1216;-19
2021/10/28 04:34:54;;;;;;;;;;;;;;;;;;1034063;28;1069;-19
2021/10/28 04:35:24;;;;;;;;;;;;;;;;;;1034372;28;1042;-19
2021/10/28 04:35:55;;;;;;;;;;;;;;;;;;1037172;28;1065;-19
2021/10/28 04:36:28;;;;;;;;;;;;;;;;;;1039108;28;850;-20
2021/10/28 04:36:58;;;;;;;;;;;;;;;;;;1039001;28;1013;-19
2021/10/28 04:37:29;;;;;;;;;;;;;;;;;;1041994;28;1407;-19
2021/10/28 04:37:59;;;;;;;;;;;;;;;;;;1042561;28;924;-19
2021/10/28 04:38:30;;;;;;;;;;;;;;;;;;1042319;28;1612;-19
2021/10/28 04:39:03;;;;;;;;;;;;;;;;;;1042354;28;945;-19
2021/10/28 04:39:33;;;;;;;;;;;;;;;;;;1038954;28;870;-19
2021/10/28 04:40:05;;;;;;;;;;;;;;;;;;1042451;28;1050;-20
2021/10/28 04:40:35;;;;;;;;;;;;;;;;;;1042205;28;834;-20
2021/10/28 04:41:06;;;;;;;;;;;;;;;;;;1042149;28;1009;-19
2021/10/28 04:41:37;;;;;;;;;;;;;;;;;;1042253;28;1158;-19
2021/10/28 04:42:08;;;;;;;;;;;;;;;;;;1038904;28;946;-19
2021/10/28 04:42:38;;;;;;;;;;;;;;;;;;1039076;28;940;-19
2021/10/28 04:43:09;;;;;;;;;;;;;;;;;;1038944;28;992;-19
2021/10/28 04:43:39;;;;;;;;;;;;;;;;;;1038857;28;901;-19
2021/10/28 04:44:11;;;;;;;;;;;;;;;;;;1039146;28;1078;-19
2021/10/28 04:44:42;;;;;;;;;;;;;;;;;;1037794;28;1934;-20